createdAt,value
2019-02-10T00:03:20.593Z,97347.36
2019-02-10T00:07:24.044Z,97342.39
2019-02-10T00:11:27.499Z,97341.25
2019-02-10T00:15:30.956Z,97342.75
2019-02-10T00:19:34.404Z,97337.66
2019-02-10T00:23:37.864Z,97340.86
2019-02-10T00:27:41.319Z,97324.25
2019-02-10T00:31:44.788Z,97301.98
2019-02-10T00:35:48.229Z,97284.66
2019-02-10T00:39:51.690Z,97286.98
2019-02-10T00:43:55.144Z,97269.27
2019-02-10T00:47:58.614Z,97251.12
2019-02-10T00:52:02.082Z,97232.80
2019-02-10T00:56:05.527Z,97242.58
2019-02-10T01:00:08.988Z,97246.70
2019-02-10T01:04:12.447Z,97252.44
2019-02-10T01:08:15.903Z,97252.48
2019-02-10T01:12:19.636Z,97232.47
2019-02-10T01:16:23.079Z,97218.93
2019-02-10T01:20:26.538Z,97216.60
2019-02-10T01:24:29.993Z,97218.98
2019-02-10T01:28:33.454Z,97211.04
2019-02-10T01:32:36.914Z,97201.03
2019-02-10T01:36:40.375Z,97207.94
2019-02-10T01:40:43.819Z,97199.33
2019-02-10T01:44:47.272Z,97193.35
2019-02-10T01:48:50.730Z,97182.36
2019-02-10T01:52:54.186Z,97177.42
2019-02-10T01:56:57.640Z,97158.61
2019-02-10T02:01:01.097Z,97144.16
2019-02-10T02:05:05.322Z,97128.64
2019-02-10T02:09:10.445Z,97120.36
2019-02-10T02:13:13.897Z,97114.23
2019-02-10T02:17:17.361Z,97097.28
2019-02-10T02:21:20.825Z,97072.52
2019-02-10T02:25:24.279Z,97073.30
2019-02-10T02:29:27.738Z,97076.53
2019-02-10T02:33:31.181Z,97063.88
2019-02-10T02:37:34.638Z,97075.41
2019-02-10T02:41:38.093Z,97069.35
2019-02-10T02:45:41.549Z,97044.55
2019-02-10T02:49:45.044Z,97027.38
2019-02-10T02:53:48.461Z,97014.83
2019-02-10T02:57:51.943Z,97002.69
2019-02-10T03:01:55.369Z,96991.58
2019-02-10T03:05:58.832Z,96993.19
2019-02-10T03:10:02.293Z,96966.22
2019-02-10T03:14:08.456Z,96955.09
2019-02-10T03:18:11.916Z,96929.75
2019-02-10T03:22:15.373Z,96905.73
2019-02-10T03:26:18.831Z,96898.34
2019-02-10T03:30:22.293Z,96908.36
2019-02-10T03:34:25.745Z,96911.67
2019-02-10T03:38:29.194Z,96925.84
2019-02-10T03:42:32.647Z,96897.86
2019-02-10T03:46:36.109Z,96892.75
2019-02-10T03:50:39.576Z,96866.45
2019-02-10T03:54:43.042Z,96847.92
2019-02-10T03:58:46.485Z,96828.30
2019-02-10T04:02:49.941Z,96814.91
2019-02-10T04:06:53.395Z,96800.60
2019-02-10T04:10:56.855Z,96793.84
2019-02-10T04:15:00.319Z,96796.65
2019-02-10T04:19:03.758Z,96786.44
2019-02-10T04:23:08.687Z,96777.40
2019-02-10T04:27:12.201Z,96764.91
2019-02-10T04:31:15.606Z,96759.00
2019-02-10T04:35:19.069Z,96748.75
2019-02-10T04:39:22.543Z,96742.95
2019-02-10T04:43:26.000Z,96728.90
2019-02-10T04:47:29.464Z,96711.80
2019-02-10T04:51:32.920Z,96709.34
2019-02-10T04:55:36.381Z,96700.99
2019-02-10T04:59:39.828Z,96708.04
2019-02-10T05:03:43.288Z,96698.09
2019-02-10T05:07:54.259Z,96687.98
2019-02-10T05:11:51.889Z,96673.92
2019-02-10T05:15:55.349Z,96661.30
2019-02-10T05:19:58.809Z,96657.92
2019-02-10T05:24:03.790Z,96641.71
2019-02-10T05:28:07.404Z,96618.97
2019-02-10T05:32:10.874Z,96609.47
2019-02-10T05:36:14.311Z,96598.44
2019-02-10T05:40:17.771Z,96582.14
2019-02-10T05:44:21.218Z,96571.41
2019-02-10T05:48:24.674Z,96555.34
2019-02-10T05:52:28.119Z,96557.10
2019-02-10T05:56:31.571Z,96535.22
2019-02-10T06:00:35.029Z,96529.95
2019-02-10T06:04:38.480Z,96524.59
2019-02-10T06:08:41.951Z,96503.20
2019-02-10T06:12:45.384Z,96501.59
2019-02-10T06:16:48.843Z,96497.52
2019-02-10T06:20:52.304Z,96469.01
2019-02-10T06:24:55.769Z,96457.21
2019-02-10T06:28:59.247Z,96466.31
2019-02-10T06:33:02.696Z,96445.90
2019-02-10T06:37:06.153Z,96436.05
2019-02-10T06:41:09.616Z,96434.66
2019-02-10T06:45:13.074Z,96430.23
2019-02-10T06:49:17.504Z,96418.36
2019-02-10T06:53:20.954Z,96390.98
2019-02-10T06:57:24.395Z,96395.11
2019-02-10T07:01:29.504Z,96372.31
2019-02-10T07:05:32.960Z,96366.20
2019-02-10T07:09:36.401Z,96341.94
2019-02-10T07:13:39.850Z,96341.27
2019-02-10T07:17:43.307Z,96317.08
2019-02-10T07:21:46.760Z,96312.33
2019-02-10T07:25:50.215Z,96296.20
2019-02-10T07:29:53.659Z,96311.19
2019-02-10T07:33:58.542Z,96314.00
2019-02-10T07:38:02.257Z,96305.95
2019-02-10T07:42:05.707Z,96284.38
2019-02-10T07:46:09.172Z,96285.78
2019-02-10T07:50:12.613Z,96282.80
2019-02-10T07:54:16.082Z,96267.46
2019-02-10T07:58:19.523Z,96261.63
2019-02-10T08:02:22.972Z,96245.50
2019-02-10T08:06:26.426Z,96238.67
2019-02-10T08:10:29.875Z,96223.84
2019-02-10T08:14:33.327Z,96200.15
2019-02-10T08:18:36.780Z,96187.41
2019-02-10T08:22:40.226Z,96178.34
2019-02-10T08:26:43.691Z,96172.60
2019-02-10T08:30:47.137Z,96162.57
2019-02-10T08:34:50.591Z,96147.59
2019-02-10T08:38:54.729Z,96143.34
2019-02-10T08:42:58.171Z,96144.94
2019-02-10T08:47:01.616Z,96147.36
2019-02-10T08:51:05.056Z,96138.05
2019-02-10T08:55:08.501Z,96123.71
2019-02-10T08:59:11.961Z,96123.83
2019-02-10T09:03:19.662Z,96110.14
2019-02-10T09:07:20.556Z,96106.70
2019-02-10T09:11:24.001Z,96086.33
2019-02-10T09:15:27.459Z,96084.77
2019-02-10T09:19:30.913Z,96082.44
2019-02-10T09:23:34.366Z,96085.36
2019-02-10T09:27:37.805Z,96062.91
2019-02-10T09:31:41.255Z,96056.01
2019-02-10T09:35:44.709Z,96067.28
2019-02-10T09:39:48.171Z,96063.31
2019-02-10T09:43:51.621Z,96058.29
2019-02-10T09:47:55.068Z,96062.59
2019-02-10T09:51:58.530Z,96049.30
2019-02-10T09:56:01.979Z,96043.50
2019-02-10T10:00:06.502Z,96035.48
2019-02-10T10:04:09.971Z,96025.48
2019-02-10T10:08:13.433Z,96020.70
2019-02-10T10:12:16.883Z,96007.48
2019-02-10T10:16:20.349Z,96004.20
2019-02-10T10:20:23.794Z,95996.46
2019-02-10T10:24:27.252Z,95993.39
2019-02-10T10:28:30.693Z,95977.86
2019-02-10T10:32:34.155Z,95968.43
2019-02-10T10:36:37.609Z,95977.44
2019-02-10T10:40:41.064Z,95956.73
2019-02-10T10:44:44.517Z,95951.50
2019-02-10T10:48:47.961Z,95936.47
2019-02-10T10:52:51.425Z,95936.52
2019-02-10T10:56:54.876Z,95931.32
2019-02-10T11:00:58.326Z,95914.83
2019-02-10T11:05:01.777Z,95915.36
2019-02-10T11:09:05.220Z,95895.23
2019-02-10T11:13:08.677Z,95896.33
2019-02-10T11:17:12.133Z,95877.06
2019-02-10T11:21:15.600Z,95869.48
2019-02-10T11:25:19.046Z,95872.29
2019-02-10T11:29:22.500Z,95861.88
2019-02-10T11:33:25.939Z,95832.30
2019-02-10T11:37:31.090Z,95838.57
2019-02-10T11:41:34.621Z,95821.53
2019-02-10T11:45:38.074Z,95807.13
2019-02-10T11:49:41.516Z,95804.30
2019-02-10T11:53:46.574Z,95795.02
2019-02-10T11:57:50.305Z,95772.08
2019-02-10T12:01:53.780Z,95793.80
2019-02-10T12:05:57.236Z,95781.02
2019-02-10T12:10:00.681Z,95774.52
2019-02-10T12:14:04.142Z,95750.82
2019-02-10T12:18:07.597Z,95738.14
2019-02-10T12:22:11.045Z,95731.19
2019-02-10T12:26:14.509Z,95714.39
2019-02-10T12:30:17.953Z,95721.30
2019-02-10T12:34:21.399Z,95714.56
2019-02-10T12:38:24.857Z,95731.17
2019-02-10T12:42:28.318Z,95704.69
2019-02-10T12:46:31.771Z,95711.39
2019-02-10T12:50:35.219Z,95684.87
2019-02-10T12:54:38.690Z,95688.69
2019-02-10T12:58:42.137Z,95704.41
2019-02-10T13:02:45.597Z,95690.23
2019-02-10T13:06:49.059Z,95696.28
2019-02-10T13:10:53.575Z,95688.53
2019-02-10T13:14:58.080Z,95691.41
2019-02-10T13:19:01.540Z,95693.88
2019-02-10T13:23:05.008Z,95681.61
2019-02-10T13:27:08.462Z,95679.00
2019-02-10T13:31:11.913Z,95679.70
2019-02-10T13:35:15.372Z,95686.63
2019-02-10T13:39:18.852Z,95690.92
2019-02-10T13:43:22.327Z,95691.70
2019-02-10T13:47:25.772Z,95694.42
2019-02-10T13:51:29.246Z,95675.16
2019-02-10T13:55:32.697Z,95670.87
2019-02-10T13:59:36.177Z,95668.86
2019-02-10T14:03:39.631Z,95693.91
2019-02-10T14:07:43.086Z,95701.75
2019-02-10T14:11:46.563Z,95705.38
2019-02-10T14:15:49.995Z,95675.66
2019-02-10T14:19:53.450Z,95687.53
2019-02-10T14:23:56.912Z,95714.90
2019-02-10T14:28:00.353Z,95719.66
2019-02-10T14:32:03.806Z,95730.23
2019-02-10T14:36:07.260Z,95720.53
2019-02-10T14:40:10.714Z,95728.23
2019-02-10T14:44:14.170Z,95731.88
2019-02-10T14:48:17.612Z,95739.44
2019-02-10T14:52:21.063Z,95739.30
2019-02-10T14:56:24.521Z,95744.90
2019-02-10T15:00:27.974Z,95724.70
2019-02-10T15:04:31.432Z,95727.55
2019-02-10T15:08:35.942Z,95734.84
2019-02-10T15:12:39.406Z,95727.19
2019-02-10T15:16:42.864Z,95732.87
2019-02-10T15:20:46.313Z,95749.53
2019-02-10T15:24:49.772Z,95718.32
2019-02-10T15:28:53.222Z,95746.86
2019-02-10T15:32:56.695Z,95738.73
2019-02-10T15:37:00.151Z,95753.56
2019-02-10T15:41:03.608Z,95754.99
2019-02-10T15:45:07.062Z,95761.66
2019-02-10T15:49:10.498Z,95759.68
2019-02-10T15:53:13.962Z,95769.27
2019-02-10T15:57:17.426Z,95778.63
2019-02-10T16:01:20.889Z,95774.97
2019-02-10T16:05:24.420Z,95760.38
2019-02-10T16:09:27.869Z,95760.84
2019-02-10T16:13:31.332Z,95759.64
2019-02-10T16:17:34.792Z,95775.47
2019-02-10T16:21:38.252Z,95766.74
2019-02-10T16:25:41.707Z,95777.00
2019-02-10T16:29:45.158Z,95798.58
2019-02-10T16:33:48.622Z,95806.29
2019-02-10T16:37:52.078Z,95822.89
2019-02-10T16:41:55.536Z,95836.97
2019-02-10T16:45:58.997Z,95842.47
2019-02-10T16:50:02.448Z,95846.59
2019-02-10T16:54:05.908Z,95839.92
2019-02-10T16:58:10.428Z,95837.47
2019-02-10T17:02:13.884Z,95836.03
2019-02-10T17:06:17.339Z,95835.17
2019-02-10T17:10:20.800Z,95844.52
2019-02-10T17:14:24.247Z,95845.50
2019-02-10T17:18:27.701Z,95837.44
2019-02-10T17:22:31.155Z,95864.63
2019-02-10T17:26:34.603Z,95860.02
2019-02-10T17:30:38.050Z,95870.19
2019-02-10T17:34:41.498Z,95877.11
2019-02-10T17:38:44.962Z,95899.26
2019-02-10T17:42:48.412Z,95923.40
2019-02-10T17:46:51.867Z,95907.38
2019-02-10T17:50:55.310Z,95909.38
2019-02-10T17:54:58.766Z,95934.38
2019-02-10T17:59:02.224Z,95952.70
2019-02-10T18:03:05.680Z,95956.03
2019-02-10T18:07:09.165Z,95960.95
2019-02-10T18:11:12.609Z,95976.84
2019-02-10T18:15:17.706Z,95990.00
2019-02-10T18:19:25.732Z,95977.91
2019-02-10T18:23:30.824Z,95998.11
2019-02-10T18:27:35.922Z,95994.28
2019-02-10T18:31:49.892Z,95997.03
2019-02-10T18:35:57.654Z,95996.20
2019-02-10T18:40:18.055Z,95993.02
2019-02-10T18:44:32.145Z,96007.97
2019-02-10T18:48:37.243Z,96010.56
2019-02-10T18:52:42.328Z,96017.06
2019-02-10T18:56:47.420Z,96019.08
2019-02-10T19:00:55.229Z,96033.18
2019-02-10T19:05:03.363Z,96053.98
2019-02-10T19:09:20.445Z,96061.68
2019-02-10T19:13:41.912Z,96075.02
2019-02-10T19:17:55.858Z,96078.05
2019-02-10T19:22:03.914Z,96077.28
2019-02-10T19:26:09.011Z,96076.70
2019-02-10T19:30:14.117Z,96092.48
2019-02-10T19:34:21.896Z,96081.37
2019-02-10T19:38:38.958Z,96078.87
2019-02-10T19:42:46.845Z,96076.34
2019-02-10T19:46:57.917Z,96084.83
2019-02-10T19:51:21.048Z,96088.52
2019-02-10T19:55:29.050Z,96068.55
2019-02-10T19:59:34.125Z,96069.75
2019-02-10T20:03:42.136Z,96074.36
2019-02-10T20:07:53.088Z,96074.50
2019-02-10T20:12:17.645Z,96108.93
2019-02-10T20:16:25.552Z,96106.20
2019-02-10T20:20:42.671Z,96114.39
2019-02-10T20:24:50.731Z,96132.38
2019-02-10T20:29:04.599Z,96120.69
2019-02-10T20:33:21.709Z,96145.00
2019-02-10T20:37:32.644Z,96150.66
2019-02-10T20:41:40.461Z,96160.92
2019-02-10T20:45:45.547Z,96173.81
2019-02-10T20:49:50.661Z,96173.60
2019-02-10T20:54:04.770Z,96174.91
2019-02-10T20:58:36.652Z,96178.17
2019-02-10T21:02:50.743Z,96199.81
2019-02-10T21:07:12.238Z,96170.86
2019-02-10T21:11:18.393Z,96198.39
2019-02-10T21:15:39.713Z,96212.27
2019-02-10T21:19:44.807Z,96217.09
2019-02-10T21:24:04.962Z,96232.95
2019-02-10T21:28:10.079Z,96255.13
2019-02-10T21:32:33.226Z,96262.41
2019-02-10T21:36:38.312Z,96282.42
2019-02-10T21:40:46.213Z,96293.21
2019-02-10T21:44:51.310Z,96297.40
2019-02-10T21:48:56.434Z,96309.47
2019-02-10T21:52:59.890Z,96306.71
2019-02-10T21:57:03.337Z,96332.91
2019-02-10T22:01:06.794Z,96334.95
2019-02-10T22:05:11.235Z,96351.62
2019-02-10T22:09:14.713Z,96360.63
2019-02-10T22:13:18.129Z,96349.73
2019-02-10T22:17:21.565Z,96353.40
2019-02-10T22:21:25.025Z,96364.30
2019-02-10T22:25:28.476Z,96374.90
2019-02-10T22:29:31.932Z,96377.31
2019-02-10T22:33:35.387Z,96400.84
2019-02-10T22:37:38.836Z,96383.72
2019-02-10T22:41:42.292Z,96396.58
2019-02-10T22:45:45.750Z,96388.55
2019-02-10T22:49:50.261Z,96412.45
2019-02-10T22:53:53.714Z,96433.72
2019-02-10T22:57:57.158Z,96438.66
2019-02-10T23:02:00.616Z,96460.02
2019-02-10T23:06:04.062Z,96481.53
2019-02-10T23:10:07.515Z,96480.37
2019-02-10T23:14:10.977Z,96482.53
2019-02-10T23:18:14.414Z,96498.49
2019-02-10T23:22:17.883Z,96494.59
2019-02-10T23:26:21.336Z,96495.38
2019-02-10T23:30:24.791Z,96511.67
2019-02-10T23:34:28.229Z,96521.25
2019-02-10T23:38:31.682Z,96528.64
2019-02-10T23:42:35.138Z,96541.10
2019-02-10T23:46:38.588Z,96558.41
2019-02-10T23:50:42.037Z,96573.81
2019-02-10T23:54:45.478Z,96592.05
2019-02-10T23:58:48.936Z,96597.41
